sensor_id;sensor_type;location;lat;lon;timestamp;P1;durP1;ratioP1;P2;durP2;ratioP2
42846;SDS011;28495;49.916;14.536;2022-12-18T00:04:21;41.05;;;20.50;;
42846;SDS011;28495;49.916;14.536;2022-12-18T00:09:43;39.92;;;18.40;;
42846;SDS011;28495;49.916;14.536;2022-12-18T00:15:04;36.15;;;19.00;;
42846;SDS011;28495;49.916;14.536;2022-12-18T00:20:25;39.35;;;18.67;;
42846;SDS011;28495;49.916;14.536;2022-12-18T00:25:46;38.08;;;18.70;;
42846;SDS011;28495;49.916;14.536;2022-12-18T00:31:07;37.30;;;18.08;;
42846;SDS011;28495;49.916;14.536;2022-12-18T00:36:32;37.58;;;16.90;;
42846;SDS011;28495;49.916;14.536;2022-12-18T00:41:55;30.27;;;16.02;;
42846;SDS011;28495;49.916;14.536;2022-12-18T00:47:34;45.88;;;18.98;;
42846;SDS011;28495;49.916;14.536;2022-12-18T00:52:54;42.83;;;19.55;;
42846;SDS011;28495;49.916;14.536;2022-12-18T00:58:16;52.78;;;24.27;;
42846;SDS011;28495;49.916;14.536;2022-12-18T01:03:37;43.78;;;21.17;;
42846;SDS011;28495;49.916;14.536;2022-12-18T01:09:00;40.95;;;18.20;;
42846;SDS011;28495;49.916;14.536;2022-12-18T01:14:20;41.47;;;19.30;;
42846;SDS011;28495;49.916;14.536;2022-12-18T01:19:41;36.97;;;16.92;;
42846;SDS011;28495;49.916;14.536;2022-12-18T01:25:03;38.22;;;18.38;;
42846;SDS011;28495;49.916;14.536;2022-12-18T01:30:25;35.15;;;18.25;;
42846;SDS011;28495;49.916;14.536;2022-12-18T01:35:46;42.15;;;21.52;;
42846;SDS011;28495;49.916;14.536;2022-12-18T01:41:08;54.20;;;22.80;;
42846;SDS011;28495;49.916;14.536;2022-12-18T01:46:29;45.10;;;20.45;;
42846;SDS011;28495;49.916;14.536;2022-12-18T01:51:50;50.90;;;20.80;;
42846;SDS011;28495;49.916;14.536;2022-12-18T01:57:12;44.70;;;20.17;;
42846;SDS011;28495;49.916;14.536;2022-12-18T02:02:33;35.75;;;17.67;;
42846;SDS011;28495;49.916;14.536;2022-12-18T02:30:55;38.80;;;17.38;;
42846;SDS011;28495;49.916;14.536;2022-12-18T02:36:20;33.47;;;15.68;;
42846;SDS011;28495;49.916;14.536;2022-12-18T02:41:45;35.50;;;16.20;;
42846;SDS011;28495;49.916;14.536;2022-12-18T02:47:08;34.28;;;16.38;;
42846;SDS011;28495;49.916;14.536;2022-12-18T02:58:04;39.00;;;18.52;;
42846;SDS011;28495;49.916;14.536;2022-12-18T03:03:51;45.05;;;18.50;;
42846;SDS011;28495;49.916;14.536;2022-12-18T03:09:20;37.05;;;17.98;;
42846;SDS011;28495;49.916;14.536;2022-12-18T03:20:16;65.05;;;25.83;;
42846;SDS011;28495;49.916;14.536;2022-12-18T03:25:40;52.97;;;21.95;;
42846;SDS011;28495;49.916;14.536;2022-12-18T03:31:08;47.30;;;21.08;;
42846;SDS011;28495;49.916;14.536;2022-12-18T03:36:31;53.03;;;22.83;;
42846;SDS011;28495;49.916;14.536;2022-12-18T03:42:05;54.53;;;21.63;;
42846;SDS011;28495;49.916;14.536;2022-12-18T03:47:58;70.10;;;24.98;;
42846;SDS011;28495;49.916;14.536;2022-12-18T03:59:24;50.92;;;20.98;;
42846;SDS011;28495;49.916;14.536;2022-12-18T04:04:50;48.60;;;21.10;;
42846;SDS011;28495;49.916;14.536;2022-12-18T04:10:17;49.05;;;22.65;;
42846;SDS011;28495;49.916;14.536;2022-12-18T04:15:40;46.80;;;20.40;;
42846;SDS011;28495;49.916;14.536;2022-12-18T04:21:06;57.85;;;22.63;;
42846;SDS011;28495;49.916;14.536;2022-12-18T04:26:26;44.92;;;18.13;;
42846;SDS011;28495;49.916;14.536;2022-12-18T04:32:00;53.58;;;21.08;;
42846;SDS011;28495;49.916;14.536;2022-12-18T04:37:23;38.10;;;17.02;;
42846;SDS011;28495;49.916;14.536;2022-12-18T04:42:44;40.58;;;17.10;;
42846;SDS011;28495;49.916;14.536;2022-12-18T04:48:05;21.48;;;10.90;;
42846;SDS011;28495;49.916;14.536;2022-12-18T04:53:26;20.80;;;8.63;;
42846;SDS011;28495;49.916;14.536;2022-12-18T04:58:47;12.70;;;6.55;;
42846;SDS011;28495;49.916;14.536;2022-12-18T05:04:08;13.80;;;7.43;;
42846;SDS011;28495;49.916;14.536;2022-12-18T05:09:29;29.17;;;13.93;;
42846;SDS011;28495;49.916;14.536;2022-12-18T05:14:50;22.30;;;10.38;;
42846;SDS011;28495;49.916;14.536;2022-12-18T05:20:11;20.38;;;11.25;;
42846;SDS011;28495;49.916;14.536;2022-12-18T05:25:32;19.08;;;10.38;;
42846;SDS011;28495;49.916;14.536;2022-12-18T05:30:54;18.58;;;9.95;;
42846;SDS011;28495;49.916;14.536;2022-12-18T05:36:17;24.17;;;10.98;;
42846;SDS011;28495;49.916;14.536;2022-12-18T05:41:37;22.92;;;10.68;;
42846;SDS011;28495;49.916;14.536;2022-12-18T05:46:58;26.13;;;12.00;;
42846;SDS011;28495;49.916;14.536;2022-12-18T05:52:19;69.75;;;22.13;;
42846;SDS011;28495;49.916;14.536;2022-12-18T05:57:40;38.53;;;15.98;;
42846;SDS011;28495;49.916;14.536;2022-12-18T06:03:01;43.33;;;18.55;;
42846;SDS011;28495;49.916;14.536;2022-12-18T06:08:22;31.23;;;13.32;;
42846;SDS011;28495;49.916;14.536;2022-12-18T06:13:43;30.83;;;14.52;;
42846;SDS011;28495;49.916;14.536;2022-12-18T06:19:04;33.15;;;13.60;;
42846;SDS011;28495;49.916;14.536;2022-12-18T06:24:26;30.73;;;13.77;;
42846;SDS011;28495;49.916;14.536;2022-12-18T06:29:46;23.95;;;11.27;;
42846;SDS011;28495;49.916;14.536;2022-12-18T06:35:08;23.98;;;10.30;;
42846;SDS011;28495;49.916;14.536;2022-12-18T06:40:29;26.02;;;10.68;;
42846;SDS011;28495;49.916;14.536;2022-12-18T06:45:50;22.85;;;11.85;;
42846;SDS011;28495;49.916;14.536;2022-12-18T06:51:15;27.40;;;12.32;;
42846;SDS011;28495;49.916;14.536;2022-12-18T06:56:40;22.98;;;10.85;;
42846;SDS011;28495;49.916;14.536;2022-12-18T07:02:00;18.63;;;9.00;;
42846;SDS011;28495;49.916;14.536;2022-12-18T07:07:22;27.65;;;11.43;;
42846;SDS011;28495;49.916;14.536;2022-12-18T07:12:42;24.98;;;11.50;;
42846;SDS011;28495;49.916;14.536;2022-12-18T07:18:03;18.48;;;9.32;;
42846;SDS011;28495;49.916;14.536;2022-12-18T07:23:24;22.08;;;9.40;;
42846;SDS011;28495;49.916;14.536;2022-12-18T07:28:45;20.65;;;10.27;;
42846;SDS011;28495;49.916;14.536;2022-12-18T07:34:09;22.08;;;9.85;;
42846;SDS011;28495;49.916;14.536;2022-12-18T07:39:31;23.17;;;10.50;;
42846;SDS011;28495;49.916;14.536;2022-12-18T07:44:52;18.42;;;8.40;;
42846;SDS011;28495;49.916;14.536;2022-12-18T07:50:12;24.75;;;11.82;;
42846;SDS011;28495;49.916;14.536;2022-12-18T07:55:33;36.05;;;17.58;;
42846;SDS011;28495;49.916;14.536;2022-12-18T08:01:14;20.58;;;11.32;;
42846;SDS011;28495;49.916;14.536;2022-12-18T08:06:36;24.77;;;12.13;;
42846;SDS011;28495;49.916;14.536;2022-12-18T08:11:57;28.23;;;13.57;;
42846;SDS011;28495;49.916;14.536;2022-12-18T08:17:19;24.13;;;10.70;;
42846;SDS011;28495;49.916;14.536;2022-12-18T08:22:41;24.95;;;13.60;;
42846;SDS011;28495;49.916;14.536;2022-12-18T08:28:02;23.65;;;12.48;;
42846;SDS011;28495;49.916;14.536;2022-12-18T08:33:23;17.63;;;9.18;;
42846;SDS011;28495;49.916;14.536;2022-12-18T08:38:45;18.77;;;7.18;;
42846;SDS011;28495;49.916;14.536;2022-12-18T08:44:07;16.42;;;7.70;;
42846;SDS011;28495;49.916;14.536;2022-12-18T08:49:47;13.80;;;7.53;;
42846;SDS011;28495;49.916;14.536;2022-12-18T08:55:08;50.60;;;21.65;;
42846;SDS011;28495;49.916;14.536;2022-12-18T09:00:33;16.27;;;8.13;;
42846;SDS011;28495;49.916;14.536;2022-12-18T09:05:53;14.65;;;8.18;;
42846;SDS011;28495;49.916;14.536;2022-12-18T09:11:15;19.15;;;9.50;;
42846;SDS011;28495;49.916;14.536;2022-12-18T09:16:41;24.80;;;11.70;;
42846;SDS011;28495;49.916;14.536;2022-12-18T09:22:02;22.10;;;11.50;;
42846;SDS011;28495;49.916;14.536;2022-12-18T09:27:23;27.92;;;11.65;;
42846;SDS011;28495;49.916;14.536;2022-12-18T09:32:43;18.70;;;10.68;;
42846;SDS011;28495;49.916;14.536;2022-12-18T09:38:05;24.55;;;13.43;;
42846;SDS011;28495;49.916;14.536;2022-12-18T09:49:07;16.23;;;9.32;;
42846;SDS011;28495;49.916;14.536;2022-12-18T09:54:40;18.52;;;10.13;;
42846;SDS011;28495;49.916;14.536;2022-12-18T10:00:04;18.83;;;10.13;;
42846;SDS011;28495;49.916;14.536;2022-12-18T10:11:20;25.15;;;11.43;;
42846;SDS011;28495;49.916;14.536;2022-12-18T10:22:32;22.98;;;12.20;;
42846;SDS011;28495;49.916;14.536;2022-12-18T10:28:21;23.70;;;11.25;;
42846;SDS011;28495;49.916;14.536;2022-12-18T10:33:44;18.13;;;10.00;;
42846;SDS011;28495;49.916;14.536;2022-12-18T10:39:16;43.70;;;18.80;;
42846;SDS011;28495;49.916;14.536;2022-12-18T10:44:42;24.65;;;11.00;;
42846;SDS011;28495;49.916;14.536;2022-12-18T10:50:03;18.83;;;10.40;;
42846;SDS011;28495;49.916;14.536;2022-12-18T10:55:26;27.05;;;12.80;;
42846;SDS011;28495;49.916;14.536;2022-12-18T11:06:28;30.95;;;15.20;;
42846;SDS011;28495;49.916;14.536;2022-12-18T11:11:54;31.73;;;15.60;;
42846;SDS011;28495;49.916;14.536;2022-12-18T11:17:21;34.17;;;13.88;;
42846;SDS011;28495;49.916;14.536;2022-12-18T11:22:55;31.85;;;13.70;;
42846;SDS011;28495;49.916;14.536;2022-12-18T11:28:38;16.10;;;7.90;;
42846;SDS011;28495;49.916;14.536;2022-12-18T11:34:13;42.10;;;19.50;;
42846;SDS011;28495;49.916;14.536;2022-12-18T11:39:55;30.92;;;15.55;;
42846;SDS011;28495;49.916;14.536;2022-12-18T11:50:53;29.70;;;14.07;;
42846;SDS011;28495;49.916;14.536;2022-12-18T11:56:22;34.78;;;14.75;;
42846;SDS011;28495;49.916;14.536;2022-12-18T12:02:03;39.25;;;16.20;;
42846;SDS011;28495;49.916;14.536;2022-12-18T12:13:24;47.78;;;19.45;;
42846;SDS011;28495;49.916;14.536;2022-12-18T12:41:45;43.70;;;20.30;;
42846;SDS011;28495;49.916;14.536;2022-12-18T12:48:00;30.85;;;14.60;;
42846;SDS011;28495;49.916;14.536;2022-12-18T12:53:19;28.40;;;13.60;;
42846;SDS011;28495;49.916;14.536;2022-12-18T13:10:23;31.05;;;13.50;;
42846;SDS011;28495;49.916;14.536;2022-12-18T13:16:06;25.70;;;11.13;;
42846;SDS011;28495;49.916;14.536;2022-12-18T13:21:29;17.10;;;8.32;;
42846;SDS011;28495;49.916;14.536;2022-12-18T13:26:53;40.65;;;16.42;;
42846;SDS011;28495;49.916;14.536;2022-12-18T13:32:24;28.65;;;13.77;;
42846;SDS011;28495;49.916;14.536;2022-12-18T13:37:53;29.60;;;13.40;;
42846;SDS011;28495;49.916;14.536;2022-12-18T13:43:20;30.13;;;12.50;;
42846;SDS011;28495;49.916;14.536;2022-12-18T13:48:41;31.33;;;14.02;;
42846;SDS011;28495;49.916;14.536;2022-12-18T13:54:25;29.02;;;12.82;;
42846;SDS011;28495;49.916;14.536;2022-12-18T13:59:53;42.80;;;18.83;;
42846;SDS011;28495;49.916;14.536;2022-12-18T14:11:05;35.00;;;14.60;;
42846;SDS011;28495;49.916;14.536;2022-12-18T14:16:30;26.02;;;12.45;;
42846;SDS011;28495;49.916;14.536;2022-12-18T14:21:52;44.58;;;19.30;;
42846;SDS011;28495;49.916;14.536;2022-12-18T14:27:20;38.90;;;16.70;;
42846;SDS011;28495;49.916;14.536;2022-12-18T14:32:43;41.25;;;17.42;;
42846;SDS011;28495;49.916;14.536;2022-12-18T14:38:11;32.60;;;16.05;;
42846;SDS011;28495;49.916;14.536;2022-12-18T14:43:38;42.15;;;17.83;;
42846;SDS011;28495;49.916;14.536;2022-12-18T14:49:02;39.90;;;17.50;;
42846;SDS011;28495;49.916;14.536;2022-12-18T14:54:26;53.03;;;23.85;;
42846;SDS011;28495;49.916;14.536;2022-12-18T14:59:49;36.60;;;18.08;;
42846;SDS011;28495;49.916;14.536;2022-12-18T15:05:19;39.88;;;17.75;;
42846;SDS011;28495;49.916;14.536;2022-12-18T15:10:50;39.50;;;15.57;;
42846;SDS011;28495;49.916;14.536;2022-12-18T15:16:12;41.78;;;19.05;;
42846;SDS011;28495;49.916;14.536;2022-12-18T15:21:33;46.88;;;19.52;;
42846;SDS011;28495;49.916;14.536;2022-12-18T15:26:53;50.95;;;22.88;;
42846;SDS011;28495;49.916;14.536;2022-12-18T15:32:19;53.83;;;22.67;;
42846;SDS011;28495;49.916;14.536;2022-12-18T15:37:40;46.08;;;22.05;;
42846;SDS011;28495;49.916;14.536;2022-12-18T15:43:01;45.95;;;22.58;;
42846;SDS011;28495;49.916;14.536;2022-12-18T15:48:44;63.25;;;24.67;;
42846;SDS011;28495;49.916;14.536;2022-12-18T15:54:09;86.22;;;35.88;;
42846;SDS011;28495;49.916;14.536;2022-12-18T15:59:34;54.75;;;22.80;;
42846;SDS011;28495;49.916;14.536;2022-12-18T16:04:55;38.70;;;18.70;;
42846;SDS011;28495;49.916;14.536;2022-12-18T16:10:16;39.80;;;20.00;;
42846;SDS011;28495;49.916;14.536;2022-12-18T16:15:37;46.63;;;19.65;;
42846;SDS011;28495;49.916;14.536;2022-12-18T16:20:58;34.30;;;16.65;;
42846;SDS011;28495;49.916;14.536;2022-12-18T16:26:19;51.33;;;21.17;;
42846;SDS011;28495;49.916;14.536;2022-12-18T16:31:40;54.50;;;23.77;;
42846;SDS011;28495;49.916;14.536;2022-12-18T16:37:03;51.90;;;25.30;;
42846;SDS011;28495;49.916;14.536;2022-12-18T16:42:26;55.78;;;27.40;;
42846;SDS011;28495;49.916;14.536;2022-12-18T16:47:47;79.00;;;37.75;;
42846;SDS011;28495;49.916;14.536;2022-12-18T16:53:07;95.00;;;45.13;;
42846;SDS011;28495;49.916;14.536;2022-12-18T16:58:28;86.55;;;39.47;;
42846;SDS011;28495;49.916;14.536;2022-12-18T17:03:52;70.95;;;34.70;;
42846;SDS011;28495;49.916;14.536;2022-12-18T17:09:14;61.58;;;31.35;;
42846;SDS011;28495;49.916;14.536;2022-12-18T17:14:36;53.08;;;28.73;;
42846;SDS011;28495;49.916;14.536;2022-12-18T17:19:57;57.17;;;28.73;;
42846;SDS011;28495;49.916;14.536;2022-12-18T17:25:17;57.20;;;27.23;;
42846;SDS011;28495;49.916;14.536;2022-12-18T17:30:38;48.15;;;24.65;;
42846;SDS011;28495;49.916;14.536;2022-12-18T17:35:59;63.75;;;30.50;;
42846;SDS011;28495;49.916;14.536;2022-12-18T17:41:20;58.67;;;28.35;;
42846;SDS011;28495;49.916;14.536;2022-12-18T17:46:43;66.28;;;29.48;;
42846;SDS011;28495;49.916;14.536;2022-12-18T17:52:05;75.93;;;32.00;;
42846;SDS011;28495;49.916;14.536;2022-12-18T17:57:26;75.13;;;34.15;;
42846;SDS011;28495;49.916;14.536;2022-12-18T18:02:47;70.13;;;29.73;;
42846;SDS011;28495;49.916;14.536;2022-12-18T18:08:08;75.75;;;34.28;;
42846;SDS011;28495;49.916;14.536;2022-12-18T18:13:29;90.57;;;41.72;;
42846;SDS011;28495;49.916;14.536;2022-12-18T18:19:14;90.35;;;40.88;;
42846;SDS011;28495;49.916;14.536;2022-12-18T18:24:37;96.47;;;40.30;;
42846;SDS011;28495;49.916;14.536;2022-12-18T18:29:58;109.38;;;46.03;;
42846;SDS011;28495;49.916;14.536;2022-12-18T18:35:18;102.13;;;43.40;;
42846;SDS011;28495;49.916;14.536;2022-12-18T18:41:00;81.50;;;34.97;;
42846;SDS011;28495;49.916;14.536;2022-12-18T18:46:22;72.95;;;31.70;;
42846;SDS011;28495;49.916;14.536;2022-12-18T18:51:44;60.60;;;26.70;;
42846;SDS011;28495;49.916;14.536;2022-12-18T18:57:04;65.53;;;30.13;;
42846;SDS011;28495;49.916;14.536;2022-12-18T19:02:45;57.88;;;29.08;;
42846;SDS011;28495;49.916;14.536;2022-12-18T19:08:07;55.67;;;26.48;;
42846;SDS011;28495;49.916;14.536;2022-12-18T19:13:31;82.13;;;35.00;;
42846;SDS011;28495;49.916;14.536;2022-12-18T19:18:53;72.88;;;34.30;;
42846;SDS011;28495;49.916;14.536;2022-12-18T19:24:21;85.22;;;38.97;;
42846;SDS011;28495;49.916;14.536;2022-12-18T19:29:43;115.50;;;46.28;;
42846;SDS011;28495;49.916;14.536;2022-12-18T19:35:04;151.55;;;58.50;;
42846;SDS011;28495;49.916;14.536;2022-12-18T19:40:26;105.13;;;41.45;;
42846;SDS011;28495;49.916;14.536;2022-12-18T19:45:52;89.57;;;40.10;;
42846;SDS011;28495;49.916;14.536;2022-12-18T19:51:15;96.43;;;41.25;;
42846;SDS011;28495;49.916;14.536;2022-12-18T19:56:38;72.60;;;33.28;;
42846;SDS011;28495;49.916;14.536;2022-12-18T20:01:59;73.47;;;31.58;;
42846;SDS011;28495;49.916;14.536;2022-12-18T20:07:20;61.63;;;25.50;;
42846;SDS011;28495;49.916;14.536;2022-12-18T20:12:41;54.38;;;22.25;;
42846;SDS011;28495;49.916;14.536;2022-12-18T20:18:02;49.47;;;24.27;;
42846;SDS011;28495;49.916;14.536;2022-12-18T20:23:23;45.80;;;20.15;;
42846;SDS011;28495;49.916;14.536;2022-12-18T20:28:44;34.40;;;16.45;;
42846;SDS011;28495;49.916;14.536;2022-12-18T20:34:04;35.40;;;15.13;;
42846;SDS011;28495;49.916;14.536;2022-12-18T20:39:27;36.08;;;16.73;;
42846;SDS011;28495;49.916;14.536;2022-12-18T20:44:49;34.28;;;13.13;;
42846;SDS011;28495;49.916;14.536;2022-12-18T20:50:11;34.10;;;15.32;;
42846;SDS011;28495;49.916;14.536;2022-12-18T20:55:32;35.97;;;19.15;;
42846;SDS011;28495;49.916;14.536;2022-12-18T21:01:06;66.88;;;28.65;;
42846;SDS011;28495;49.916;14.536;2022-12-18T21:06:29;62.33;;;26.27;;
42846;SDS011;28495;49.916;14.536;2022-12-18T21:11:51;73.72;;;30.40;;
42846;SDS011;28495;49.916;14.536;2022-12-18T21:17:34;71.25;;;32.28;;
42846;SDS011;28495;49.916;14.536;2022-12-18T21:23:04;63.53;;;29.20;;
42846;SDS011;28495;49.916;14.536;2022-12-18T21:28:35;50.67;;;23.27;;
42846;SDS011;28495;49.916;14.536;2022-12-18T21:33:56;39.17;;;18.67;;
42846;SDS011;28495;49.916;14.536;2022-12-18T21:39:21;43.05;;;17.83;;
42846;SDS011;28495;49.916;14.536;2022-12-18T21:44:43;35.15;;;15.27;;
42846;SDS011;28495;49.916;14.536;2022-12-18T21:50:08;33.42;;;14.63;;
42846;SDS011;28495;49.916;14.536;2022-12-18T21:55:29;29.55;;;13.50;;
42846;SDS011;28495;49.916;14.536;2022-12-18T22:00:49;44.28;;;18.75;;
42846;SDS011;28495;49.916;14.536;2022-12-18T22:06:11;54.42;;;20.98;;
42846;SDS011;28495;49.916;14.536;2022-12-18T22:11:32;45.70;;;18.98;;
42846;SDS011;28495;49.916;14.536;2022-12-18T22:16:53;45.95;;;20.98;;
42846;SDS011;28495;49.916;14.536;2022-12-18T22:22:17;46.92;;;21.75;;
42846;SDS011;28495;49.916;14.536;2022-12-18T22:27:41;36.20;;;14.77;;
42846;SDS011;28495;49.916;14.536;2022-12-18T22:33:02;39.90;;;16.73;;
42846;SDS011;28495;49.916;14.536;2022-12-18T22:38:24;29.45;;;11.57;;
42846;SDS011;28495;49.916;14.536;2022-12-18T22:43:45;25.33;;;11.77;;
42846;SDS011;28495;49.916;14.536;2022-12-18T22:49:05;44.80;;;21.45;;
42846;SDS011;28495;49.916;14.536;2022-12-18T22:54:26;43.28;;;19.77;;
42846;SDS011;28495;49.916;14.536;2022-12-18T22:59:47;43.42;;;19.40;;
42846;SDS011;28495;49.916;14.536;2022-12-18T23:05:08;43.83;;;19.02;;
42846;SDS011;28495;49.916;14.536;2022-12-18T23:10:29;51.28;;;23.92;;
42846;SDS011;28495;49.916;14.536;2022-12-18T23:15:50;45.60;;;21.90;;
42846;SDS011;28495;49.916;14.536;2022-12-18T23:21:15;31.63;;;16.23;;
42846;SDS011;28495;49.916;14.536;2022-12-18T23:26:37;37.53;;;17.50;;
42846;SDS011;28495;49.916;14.536;2022-12-18T23:31:58;37.63;;;16.75;;
42846;SDS011;28495;49.916;14.536;2022-12-18T23:37:19;37.83;;;16.30;;
42846;SDS011;28495;49.916;14.536;2022-12-18T23:43:00;35.60;;;17.20;;
42846;SDS011;28495;49.916;14.536;2022-12-18T23:48:20;37.22;;;16.65;;
42846;SDS011;28495;49.916;14.536;2022-12-18T23:53:42;39.25;;;18.08;;
42846;SDS011;28495;49.916;14.536;2022-12-18T23:59:03;45.20;;;19.50;;
